createdAt,value
2018-12-15T00:01:56.780Z,28.70
2018-12-15T00:04:24.168Z,32.48
2018-12-15T00:06:51.576Z,30.10
2018-12-15T00:09:19.020Z,28.50
2018-12-15T00:11:46.428Z,30.92
2018-12-15T00:14:13.913Z,32.48
2018-12-15T00:16:41.347Z,31.62
2018-12-15T00:19:08.751Z,28.92
2018-12-15T00:21:36.146Z,28.20
2018-12-15T00:24:03.685Z,31.30
2018-12-15T00:26:31.080Z,30.85
2018-12-15T00:28:58.468Z,31.33
2018-12-15T00:31:25.876Z,33.55
2018-12-15T00:33:53.286Z,31.97
2018-12-15T00:36:20.692Z,31.15
2018-12-15T00:38:48.087Z,31.85
2018-12-15T00:41:15.482Z,31.42
2018-12-15T00:43:42.877Z,31.75
2018-12-15T00:46:10.272Z,31.75
2018-12-15T00:48:37.726Z,31.57
2018-12-15T00:51:05.166Z,30.35
2018-12-15T00:53:32.597Z,31.02
2018-12-15T00:56:00.009Z,31.85
2018-12-15T00:58:27.456Z,30.35
2018-12-15T01:00:54.872Z,31.62
2018-12-15T01:03:22.260Z,31.45
2018-12-15T01:05:49.657Z,33.28
2018-12-15T01:08:17.116Z,31.93
2018-12-15T01:10:44.548Z,33.02
2018-12-15T01:13:11.948Z,31.82
2018-12-15T01:15:45.224Z,31.45
2018-12-15T01:18:13.524Z,30.80
2018-12-15T01:20:40.929Z,28.15
2018-12-15T01:23:08.320Z,28.27
2018-12-15T01:25:35.720Z,28.95
2018-12-15T01:28:03.116Z,28.77
2018-12-15T01:30:30.522Z,30.37
2018-12-15T01:32:57.917Z,32.75
2018-12-15T01:35:25.328Z,29.92
2018-12-15T01:37:52.776Z,31.60
2018-12-15T01:40:20.160Z,28.70
2018-12-15T01:42:47.565Z,30.23
2018-12-15T01:45:14.952Z,31.07
2018-12-15T01:47:42.356Z,31.25
2018-12-15T01:50:09.810Z,29.85
2018-12-15T01:52:37.199Z,29.57
2018-12-15T01:55:04.724Z,28.70
2018-12-15T01:57:32.111Z,30.08
2018-12-15T01:59:59.505Z,29.77
2018-12-15T02:02:26.951Z,27.70
2018-12-15T02:04:54.356Z,28.60
2018-12-15T02:07:21.784Z,29.57
2018-12-15T02:09:49.220Z,28.77
2018-12-15T02:12:16.614Z,28.15
2018-12-15T02:14:44.021Z,27.35
2018-12-15T02:17:11.416Z,28.87
2018-12-15T02:19:38.808Z,25.95
2018-12-15T02:22:06.212Z,28.47
2018-12-15T02:24:33.620Z,28.65
2018-12-15T02:27:01.008Z,26.73
2018-12-15T02:29:28.411Z,29.40
2018-12-15T02:31:55.805Z,28.45
2018-12-15T02:34:23.211Z,28.80
2018-12-15T02:36:50.601Z,29.23
2018-12-15T02:39:18.009Z,29.55
2018-12-15T02:41:47.340Z,28.95
2018-12-15T02:44:14.853Z,29.05
2018-12-15T02:46:42.262Z,29.90
2018-12-15T02:49:09.743Z,27.17
2018-12-15T02:51:37.144Z,28.50
2018-12-15T02:54:04.562Z,28.07
2018-12-15T02:56:31.946Z,30.27
2018-12-15T02:58:59.339Z,30.02
2018-12-15T03:01:26.741Z,28.55
2018-12-15T03:03:54.129Z,29.90
2018-12-15T03:06:21.517Z,28.57
2018-12-15T03:08:48.926Z,30.25
2018-12-15T03:11:16.364Z,32.55
2018-12-15T03:13:43.760Z,28.05
2018-12-15T03:16:11.167Z,29.60
2018-12-15T03:18:38.566Z,29.02
2018-12-15T03:21:05.949Z,29.72
2018-12-15T03:23:33.412Z,30.27
2018-12-15T03:26:00.806Z,29.60
2018-12-15T03:28:28.201Z,29.52
2018-12-15T03:30:55.620Z,32.80
2018-12-15T03:33:23.106Z,31.35
2018-12-15T03:35:50.495Z,30.35
2018-12-15T03:38:17.901Z,30.65
2018-12-15T03:40:45.388Z,32.13
2018-12-15T03:43:12.780Z,31.40
2018-12-15T03:45:40.186Z,28.87
2018-12-15T03:48:07.617Z,30.95
2018-12-15T03:50:35.017Z,31.17
2018-12-15T03:53:02.516Z,30.90
2018-12-15T03:55:29.915Z,29.80
2018-12-15T03:57:57.397Z,29.37
2018-12-15T04:00:24.800Z,31.40
2018-12-15T04:02:52.205Z,30.75
2018-12-15T04:05:19.677Z,30.12
2018-12-15T04:07:47.085Z,30.15
2018-12-15T04:10:14.477Z,30.32
2018-12-15T04:12:41.873Z,30.90
2018-12-15T04:15:09.292Z,30.30
2018-12-15T04:17:36.698Z,28.80
2018-12-15T04:20:04.691Z,30.75
2018-12-15T04:22:32.185Z,32.38
2018-12-15T04:24:59.581Z,32.95
2018-12-15T04:27:27.057Z,31.55
2018-12-15T04:29:54.464Z,31.15
2018-12-15T04:32:21.857Z,31.00
2018-12-15T04:34:49.252Z,32.58
2018-12-15T04:37:16.667Z,30.70
2018-12-15T04:39:44.148Z,31.65
2018-12-15T04:42:11.537Z,31.50
2018-12-15T04:44:38.950Z,31.77
2018-12-15T04:47:06.703Z,33.73
2018-12-15T04:49:34.177Z,32.28
2018-12-15T04:52:01.566Z,34.18
2018-12-15T04:54:28.964Z,33.18
2018-12-15T04:56:56.366Z,32.08
2018-12-15T04:59:23.781Z,29.90
2018-12-15T05:01:51.241Z,29.85
2018-12-15T05:04:18.633Z,32.95
2018-12-15T05:06:46.045Z,31.05
2018-12-15T05:09:13.438Z,33.92
2018-12-15T05:11:40.836Z,32.90
2018-12-15T05:14:08.240Z,32.63
2018-12-15T05:16:35.639Z,31.42
2018-12-15T05:19:03.032Z,31.50
2018-12-15T05:21:30.441Z,30.65
2018-12-15T05:23:57.841Z,33.30
2018-12-15T05:26:25.236Z,35.90
2018-12-15T05:28:52.643Z,34.40
2018-12-15T05:31:20.041Z,32.28
2018-12-15T05:33:47.436Z,35.20
2018-12-15T05:36:14.846Z,34.58
2018-12-15T05:38:42.249Z,33.65
2018-12-15T05:41:09.653Z,34.85
2018-12-15T05:43:37.144Z,34.50
2018-12-15T05:46:04.585Z,33.20
2018-12-15T05:48:31.981Z,32.10
2018-12-15T05:50:59.396Z,34.50
2018-12-15T05:53:26.794Z,31.65
2018-12-15T05:55:54.185Z,32.90
2018-12-15T05:58:21.602Z,31.15
2018-12-15T06:00:48.998Z,32.90
2018-12-15T06:03:16.389Z,34.67
2018-12-15T06:05:43.803Z,31.93
2018-12-15T06:08:11.193Z,31.23
2018-12-15T06:10:38.633Z,32.55
2018-12-15T06:13:06.046Z,33.08
2018-12-15T06:15:33.441Z,31.40
2018-12-15T06:18:00.836Z,31.85
2018-12-15T06:20:28.249Z,32.48
2018-12-15T06:22:55.634Z,33.75
2018-12-15T06:25:23.032Z,33.02
2018-12-15T06:27:50.436Z,33.20
2018-12-15T06:30:17.830Z,34.45
2018-12-15T06:32:48.161Z,33.80
2018-12-15T06:35:15.593Z,35.58
2018-12-15T06:37:42.984Z,33.40
2018-12-15T06:40:10.435Z,36.35
2018-12-15T06:42:37.841Z,36.55
2018-12-15T06:45:05.925Z,34.35
2018-12-15T06:47:33.321Z,35.00
2018-12-15T06:50:00.730Z,34.00
2018-12-15T06:52:28.135Z,33.67
2018-12-15T06:54:55.530Z,34.60
2018-12-15T06:57:22.943Z,34.48
2018-12-15T06:59:50.340Z,36.50
2018-12-15T07:02:17.780Z,31.55
2018-12-15T07:04:45.193Z,36.23
2018-12-15T07:07:12.592Z,34.65
2018-12-15T07:09:39.980Z,34.23
2018-12-15T07:12:07.489Z,33.67
2018-12-15T07:14:34.885Z,34.67
2018-12-15T07:17:02.280Z,36.53
2018-12-15T07:19:29.692Z,36.77
2018-12-15T07:21:57.092Z,33.78
2018-12-15T07:24:24.492Z,36.42
2018-12-15T07:26:51.904Z,36.13
2018-12-15T07:29:19.393Z,35.55
2018-12-15T07:31:46.798Z,35.17
2018-12-15T07:34:14.209Z,36.05
2018-12-15T07:36:41.648Z,34.53
2018-12-15T07:39:09.037Z,35.03
2018-12-15T07:41:36.541Z,34.20
2018-12-15T07:44:04.036Z,35.65
2018-12-15T07:46:31.429Z,35.05
2018-12-15T07:48:58.855Z,35.35
2018-12-15T07:51:26.427Z,35.13
2018-12-15T07:53:53.825Z,36.30
2018-12-15T07:59:04.136Z,36.15
2018-12-15T08:01:31.544Z,35.43
2018-12-15T08:03:58.988Z,36.17
2018-12-15T08:06:26.441Z,37.25
2018-12-15T08:08:53.857Z,34.38
2018-12-15T08:11:26.777Z,34.88
2018-12-15T08:13:56.142Z,34.27
2018-12-15T08:16:23.537Z,35.35
2018-12-15T08:18:50.934Z,35.75
2018-12-15T08:21:18.344Z,33.95
2018-12-15T08:23:45.766Z,32.58
2018-12-15T08:26:13.265Z,32.45
2018-12-15T08:28:40.683Z,33.38
2018-12-15T08:31:08.096Z,31.55
2018-12-15T08:33:35.481Z,32.95
2018-12-15T08:36:02.888Z,34.55
2018-12-15T08:38:30.288Z,32.30
2018-12-15T08:40:57.739Z,34.03
2018-12-15T08:43:25.145Z,31.97
2018-12-15T08:45:52.533Z,32.50
2018-12-15T08:48:20.012Z,33.10
2018-12-15T08:50:47.584Z,33.53
2018-12-15T08:53:15.028Z,33.18
2018-12-15T08:55:42.429Z,34.43
2018-12-15T08:58:09.844Z,31.97
2018-12-15T09:00:37.288Z,31.95
2018-12-15T09:03:04.683Z,32.70
2018-12-15T09:05:32.085Z,32.05
2018-12-15T09:07:59.480Z,33.45
2018-12-15T09:10:26.876Z,28.25
2018-12-15T09:12:54.279Z,28.95
2018-12-15T09:15:21.725Z,32.25
2018-12-15T09:17:49.123Z,30.25
2018-12-15T09:20:16.573Z,29.57
2018-12-15T09:22:44.011Z,28.75
2018-12-15T09:25:11.401Z,30.23
2018-12-15T09:27:38.815Z,29.20
2018-12-15T09:30:06.713Z,31.87
2018-12-15T09:32:34.189Z,31.70
2018-12-15T09:35:01.600Z,32.53
2018-12-15T09:37:29.041Z,33.08
2018-12-15T09:39:56.508Z,33.95
2018-12-15T09:42:23.925Z,32.67
2018-12-15T09:44:51.330Z,31.87
2018-12-15T09:47:18.805Z,34.30
2018-12-15T09:49:46.301Z,33.00
2018-12-15T09:52:13.745Z,33.15
2018-12-15T09:54:42.680Z,32.13
2018-12-15T09:57:10.136Z,30.35
2018-12-15T09:59:37.535Z,31.35
2018-12-15T10:02:04.987Z,31.27
2018-12-15T10:04:32.386Z,29.52
2018-12-15T10:06:59.787Z,29.52
2018-12-15T10:09:27.172Z,29.37
2018-12-15T10:11:54.580Z,29.90
2018-12-15T10:14:21.987Z,31.57
2018-12-15T10:16:49.376Z,30.88
2018-12-15T10:19:16.801Z,30.55
2018-12-15T10:21:44.196Z,29.72
2018-12-15T10:24:11.585Z,28.73
2018-12-15T10:26:39.002Z,29.27
2018-12-15T10:29:08.352Z,29.87
2018-12-15T10:31:41.418Z,29.27
2018-12-15T10:34:08.817Z,29.27
2018-12-15T10:36:36.237Z,29.77
2018-12-15T10:39:06.744Z,29.18
2018-12-15T10:41:34.153Z,27.93
2018-12-15T10:44:01.553Z,29.95
2018-12-15T10:46:28.944Z,30.48
2018-12-15T10:48:56.348Z,28.23
2018-12-15T10:51:23.837Z,29.60
2018-12-15T10:53:51.235Z,28.32
2018-12-15T10:56:18.684Z,29.07
2018-12-15T10:58:46.073Z,28.83
2018-12-15T11:01:19.070Z,28.27
2018-12-15T11:03:46.484Z,29.20
2018-12-15T11:06:13.993Z,29.42
2018-12-15T11:08:41.406Z,32.45
2018-12-15T11:11:08.791Z,29.00
2018-12-15T11:13:36.187Z,31.12
2018-12-15T11:16:03.587Z,28.05
2018-12-15T11:18:30.976Z,28.45
2018-12-15T11:20:58.376Z,29.60
2018-12-15T11:23:25.785Z,30.35
2018-12-15T11:25:53.172Z,30.95
2018-12-15T11:28:20.571Z,29.57
2018-12-15T11:30:47.978Z,28.95
2018-12-15T11:33:15.373Z,29.27
2018-12-15T11:35:42.761Z,30.52
2018-12-15T11:38:10.162Z,30.15
2018-12-15T11:40:37.604Z,29.55
2018-12-15T11:43:04.991Z,27.35
2018-12-15T11:45:32.438Z,26.33
2018-12-15T11:47:59.845Z,28.65
2018-12-15T11:50:27.236Z,27.45
2018-12-15T11:52:54.625Z,28.90
2018-12-15T11:55:22.033Z,28.10
2018-12-15T11:57:49.437Z,28.45
2018-12-15T12:00:17.776Z,26.93
2018-12-15T12:02:45.176Z,28.20
2018-12-15T12:05:12.637Z,27.60
2018-12-15T12:07:40.048Z,28.70
2018-12-15T12:10:07.751Z,27.95
2018-12-15T12:12:35.137Z,26.10
2018-12-15T12:15:02.540Z,27.27
2018-12-15T12:17:29.948Z,28.42
2018-12-15T12:19:57.337Z,28.95
2018-12-15T12:22:24.729Z,29.32
2018-12-15T12:24:52.190Z,29.85
2018-12-15T12:27:19.589Z,29.15
2018-12-15T12:29:46.981Z,27.87
2018-12-15T12:32:14.383Z,29.52
2018-12-15T12:34:41.784Z,27.62
2018-12-15T12:37:09.178Z,30.15
2018-12-15T12:39:36.585Z,29.15
2018-12-15T12:42:04.070Z,27.77
2018-12-15T12:44:31.464Z,31.07
2018-12-15T12:46:58.869Z,30.17
2018-12-15T12:49:26.256Z,29.23
2018-12-15T12:51:53.649Z,26.00
2018-12-15T12:54:21.046Z,26.73
2018-12-15T12:56:48.437Z,26.12
2018-12-15T12:59:15.828Z,27.40
2018-12-15T13:01:43.248Z,29.45
2018-12-15T13:04:10.636Z,29.12
2018-12-15T13:06:38.025Z,28.02
2018-12-15T13:09:06.329Z,28.20
2018-12-15T13:11:33.729Z,27.75
2018-12-15T13:14:01.279Z,27.90
2018-12-15T13:16:28.924Z,28.35
2018-12-15T13:18:56.340Z,27.80
2018-12-15T13:21:23.728Z,26.60
2018-12-15T13:23:51.128Z,27.05
2018-12-15T13:26:18.520Z,28.35
2018-12-15T13:28:45.964Z,27.77
2018-12-15T13:31:14.145Z,27.05
2018-12-15T13:33:41.583Z,29.02
2018-12-15T13:36:12.850Z,28.38
2018-12-15T13:38:40.533Z,25.45
2018-12-15T13:41:08.033Z,26.37
2018-12-15T13:43:35.529Z,27.48
2018-12-15T13:46:02.927Z,28.77
2018-12-15T13:48:30.317Z,27.07
2018-12-15T13:50:57.752Z,26.97
2018-12-15T13:53:25.209Z,25.60
2018-12-15T13:55:52.600Z,27.22
2018-12-15T13:58:19.996Z,27.02
2018-12-15T14:00:47.416Z,26.30
2018-12-15T14:03:14.804Z,26.62
2018-12-15T14:05:42.188Z,29.75
2018-12-15T14:08:09.593Z,27.98
2018-12-15T14:10:36.990Z,29.45
2018-12-15T14:13:04.420Z,30.10
2018-12-15T14:15:31.844Z,29.12
2018-12-15T14:17:59.236Z,27.58
2018-12-15T14:20:26.682Z,30.00
2018-12-15T14:22:54.092Z,28.32
2018-12-15T14:25:21.485Z,28.67
2018-12-15T14:27:48.878Z,31.85
2018-12-15T14:30:16.289Z,31.17
2018-12-15T14:32:43.728Z,28.77
2018-12-15T14:35:11.172Z,29.10
2018-12-15T14:37:38.581Z,29.23
2018-12-15T14:40:06.273Z,27.55
2018-12-15T14:42:33.717Z,28.23
2018-12-15T14:45:01.120Z,29.00
2018-12-15T14:47:28.514Z,29.12
2018-12-15T14:49:55.908Z,27.55
2018-12-15T14:52:23.360Z,29.15
2018-12-15T14:54:50.752Z,28.47
2018-12-15T14:57:20.102Z,29.60
2018-12-15T14:59:47.513Z,29.48
2018-12-15T15:02:14.902Z,27.75
2018-12-15T15:04:42.296Z,29.05
2018-12-15T15:07:09.716Z,29.10
2018-12-15T15:09:37.117Z,30.70
2018-12-15T15:12:04.517Z,29.67
2018-12-15T15:14:31.945Z,30.15
2018-12-15T15:16:59.364Z,31.82
2018-12-15T15:19:26.760Z,30.60
2018-12-15T15:22:01.021Z,29.80
2018-12-15T15:24:29.369Z,32.88
2018-12-15T15:26:56.769Z,29.52
2018-12-15T15:29:24.175Z,30.48
2018-12-15T15:31:51.577Z,31.45
2018-12-15T15:34:18.997Z,31.02
2018-12-15T15:36:46.409Z,33.23
2018-12-15T15:39:13.808Z,32.42
2018-12-15T15:41:41.209Z,31.68
2018-12-15T15:44:08.621Z,30.97
2018-12-15T15:46:36.016Z,32.58
2018-12-15T15:49:03.463Z,32.33
2018-12-15T15:51:30.967Z,33.60
2018-12-15T15:53:58.355Z,33.08
2018-12-15T15:56:25.759Z,36.05
2018-12-15T15:58:53.169Z,30.90
2018-12-15T16:01:20.573Z,34.75
2018-12-15T16:03:47.966Z,32.05
2018-12-15T16:06:15.373Z,33.63
2018-12-15T16:08:42.765Z,34.13
2018-12-15T16:11:10.164Z,36.13
2018-12-15T16:13:37.569Z,32.35
2018-12-15T16:16:08.848Z,32.25
2018-12-15T16:18:36.249Z,30.95
2018-12-15T16:21:03.713Z,30.95
2018-12-15T16:23:31.109Z,30.27
2018-12-15T16:25:58.502Z,30.08
2018-12-15T16:28:25.904Z,28.20
2018-12-15T16:30:55.066Z,31.77
2018-12-15T16:33:22.476Z,30.05
2018-12-15T16:35:51.306Z,30.70
2018-12-15T16:38:18.701Z,28.45
2018-12-15T16:40:46.112Z,29.52
2018-12-15T16:43:13.526Z,29.77
2018-12-15T16:45:40.969Z,31.20
2018-12-15T16:48:08.375Z,27.73
2018-12-15T16:50:35.780Z,29.00
2018-12-15T16:53:03.177Z,27.90
2018-12-15T16:55:30.577Z,27.80
2018-12-15T16:57:57.987Z,28.07
2018-12-15T17:00:25.385Z,28.35
2018-12-15T17:02:52.833Z,27.70
2018-12-15T17:05:20.244Z,30.10
2018-12-15T17:07:47.724Z,28.80
2018-12-15T17:10:15.164Z,29.63
2018-12-15T17:12:42.616Z,29.98
2018-12-15T17:15:10.104Z,30.20
2018-12-15T17:17:37.549Z,30.65
2018-12-15T17:20:07.262Z,28.52
2018-12-15T17:22:34.665Z,27.85
2018-12-15T17:25:02.069Z,27.37
2018-12-15T17:27:29.905Z,30.23
2018-12-15T17:29:58.447Z,29.15
2018-12-15T17:32:26.064Z,29.55
2018-12-15T17:34:53.519Z,29.37
2018-12-15T17:37:20.963Z,28.10
2018-12-15T17:39:48.357Z,29.15
2018-12-15T17:42:15.805Z,28.32
2018-12-15T17:44:43.193Z,28.52
2018-12-15T17:47:10.596Z,29.40
2018-12-15T17:49:38.001Z,30.02
2018-12-15T17:52:05.392Z,28.95
2018-12-15T17:54:32.788Z,29.25
2018-12-15T17:57:00.200Z,30.15
2018-12-15T17:59:27.585Z,27.65
2018-12-15T18:01:55.121Z,29.25
2018-12-15T18:04:22.529Z,27.60
2018-12-15T18:06:50.012Z,30.20
2018-12-15T18:09:17.464Z,28.40
2018-12-15T18:11:44.921Z,29.42
2018-12-15T18:14:12.317Z,29.45
2018-12-15T18:16:39.712Z,28.77
2018-12-15T18:19:07.466Z,31.85
2018-12-15T18:21:34.869Z,30.90
2018-12-15T18:24:02.348Z,30.48
2018-12-15T18:26:29.756Z,29.85
2018-12-15T18:28:57.150Z,30.27
2018-12-15T18:31:24.643Z,29.55
2018-12-15T18:33:52.037Z,28.05
2018-12-15T18:36:19.441Z,28.40
2018-12-15T18:38:46.837Z,25.90
2018-12-15T18:41:14.248Z,27.65
2018-12-15T18:43:41.652Z,27.50
2018-12-15T18:46:09.106Z,27.00
2018-12-15T18:48:36.552Z,25.97
2018-12-15T18:51:03.956Z,27.15
2018-12-15T18:53:31.354Z,25.52
2018-12-15T18:55:58.809Z,27.60
2018-12-15T18:58:26.209Z,26.93
2018-12-15T19:00:53.604Z,26.15
2018-12-15T19:03:21.009Z,26.42
2018-12-15T19:05:48.410Z,26.95
2018-12-15T19:08:15.796Z,25.55
2018-12-15T19:10:43.209Z,27.50
2018-12-15T19:13:10.605Z,26.07
2018-12-15T19:15:38.059Z,27.07
2018-12-15T19:18:05.592Z,28.47
2018-12-15T19:20:33.105Z,28.83
2018-12-15T19:23:00.540Z,26.17
2018-12-15T19:25:28.004Z,26.82
2018-12-15T19:27:55.404Z,24.85
2018-12-15T19:30:22.810Z,27.17
2018-12-15T19:32:50.220Z,25.90
2018-12-15T19:35:17.623Z,26.95
2018-12-15T19:37:45.062Z,26.70
2018-12-15T19:40:12.471Z,27.30
2018-12-15T19:42:39.868Z,26.62
2018-12-15T19:45:08.177Z,27.70
2018-12-15T19:47:36.051Z,28.32
2018-12-15T19:50:05.040Z,28.00
2018-12-15T19:52:32.446Z,26.73
2018-12-15T19:54:59.858Z,26.77
2018-12-15T19:57:27.308Z,27.48
2018-12-15T19:59:54.718Z,27.02
2018-12-15T20:02:22.176Z,29.40
2018-12-15T20:04:49.581Z,29.35
2018-12-15T20:07:16.980Z,27.85
2018-12-15T20:09:44.393Z,29.57
2018-12-15T20:12:11.792Z,28.77
2018-12-15T20:14:39.190Z,28.67
2018-12-15T20:17:07.536Z,30.12
2018-12-15T20:19:34.925Z,27.95
2018-12-15T20:22:02.316Z,29.98
2018-12-15T20:24:30.724Z,30.20
2018-12-15T20:26:58.125Z,31.00
2018-12-15T20:29:26.441Z,29.05
2018-12-15T20:31:54.884Z,28.10
2018-12-15T20:34:22.292Z,30.52
2018-12-15T20:36:50.706Z,28.35
2018-12-15T20:39:19.052Z,29.25
2018-12-15T20:41:46.453Z,29.85
2018-12-15T20:44:13.897Z,31.30
2018-12-15T20:46:42.248Z,30.30
2018-12-15T20:49:09.682Z,31.50
2018-12-15T20:51:42.666Z,30.90
2018-12-15T20:54:06.886Z,29.57
2018-12-15T20:56:34.281Z,29.40
2018-12-15T20:59:01.675Z,32.13
2018-12-15T21:01:30.100Z,31.35
2018-12-15T21:03:57.512Z,30.23
2018-12-15T21:06:24.913Z,30.35
2018-12-15T21:08:52.321Z,30.50
2018-12-15T21:11:24.144Z,32.13
2018-12-15T21:13:49.108Z,31.85
2018-12-15T21:16:16.520Z,29.40
2018-12-15T21:18:43.972Z,30.15
2018-12-15T21:21:11.413Z,30.92
2018-12-15T21:23:39.928Z,30.20
2018-12-15T21:26:07.324Z,32.78
2018-12-15T21:28:34.829Z,30.75
2018-12-15T21:31:02.236Z,34.73
2018-12-15T21:33:29.646Z,32.35
2018-12-15T21:35:58.021Z,32.75
2018-12-15T21:38:25.433Z,32.88
2018-12-15T21:40:52.852Z,33.92
2018-12-15T21:43:21.216Z,33.85
2018-12-15T21:45:48.633Z,35.15
2018-12-15T21:48:16.037Z,35.73
2018-12-15T21:50:43.498Z,33.90
2018-12-15T21:53:10.897Z,35.70
2018-12-15T21:55:38.296Z,36.38
2018-12-15T21:58:05.696Z,36.63
2018-12-15T22:00:33.110Z,37.55
2018-12-15T22:03:00.601Z,35.10
2018-12-15T22:05:27.985Z,36.98
2018-12-15T22:07:57.041Z,36.58
2018-12-15T22:10:24.610Z,36.55
2018-12-15T22:12:52.010Z,36.33
2018-12-15T22:15:19.433Z,36.15
2018-12-15T22:17:46.921Z,33.25
2018-12-15T22:20:14.668Z,36.70
2018-12-15T22:22:42.241Z,37.05
2018-12-15T22:25:09.642Z,33.88
2018-12-15T22:27:37.036Z,38.25
2018-12-15T22:30:06.085Z,34.85
2018-12-15T22:32:33.481Z,36.35
2018-12-15T22:35:00.921Z,33.28
2018-12-15T22:37:28.322Z,35.13
2018-12-15T22:39:55.716Z,34.50
2018-12-15T22:42:23.117Z,34.45
2018-12-15T22:44:50.525Z,33.70
2018-12-15T22:47:17.925Z,35.48
2018-12-15T22:49:45.349Z,36.00
2018-12-15T22:52:12.928Z,36.60
2018-12-15T22:54:40.330Z,35.65
2018-12-15T22:57:07.738Z,35.90
2018-12-15T22:59:35.242Z,35.60
2018-12-15T23:02:02.684Z,34.75
2018-12-15T23:04:30.077Z,33.40
2018-12-15T23:06:57.497Z,35.90
2018-12-15T23:09:24.940Z,35.17
2018-12-15T23:11:52.429Z,35.90
2018-12-15T23:14:19.844Z,33.65
2018-12-15T23:16:47.301Z,32.98
2018-12-15T23:19:14.713Z,33.67
2018-12-15T23:21:42.133Z,37.03
2018-12-15T23:24:09.529Z,34.67
2018-12-15T23:26:36.929Z,33.75
2018-12-15T23:29:04.481Z,33.92
2018-12-15T23:31:31.928Z,34.20
2018-12-15T23:33:59.381Z,38.42
2018-12-15T23:36:27.744Z,34.18
2018-12-15T23:38:55.148Z,34.58
2018-12-15T23:41:22.544Z,33.98
2018-12-15T23:43:49.956Z,34.00
2018-12-15T23:46:17.359Z,32.98
2018-12-15T23:48:44.753Z,34.75
2018-12-15T23:51:12.228Z,33.33
2018-12-15T23:53:39.616Z,35.50
2018-12-15T23:56:07.064Z,34.48
2018-12-15T23:58:34.525Z,32.73
